Time;durP1;ratioP1;P1;durP2;ratioP2;P2;SDS_P1;SDS_P2;PMS_P1;PMS_P2;Temp;Humidity;BMP_temperature;BMP_pressure;BME280_temperature;BME280_humidity;BME280_pressure;Samples;Min_cycle;Max_cycle;Signal;HPM_P1;HPM_P2
2021/03/16 05:42:37;;;;;;;;;;;;;;;4.22;77.35;99011.62;1704657;82;20138;-38
2021/03/16 05:45:23;;;;;;;;;;;;;;;4.26;77.37;99011.65;1684348;84;20141;-35
2021/03/16 05:48:09;;;;;;;;;;;;;;;4.37;77.31;99011.70;1706504;83;20166;-35
2021/03/16 05:51:00;;;;;;;;;;;;;;;4.52;77.12;99018.25;1700061;83;20188;-40
2021/03/16 05:53:48;;;;;;;;;;;;;;;4.66;76.73;99027.36;1700143;83;20393;-34
2021/03/16 05:56:34;;;;;;;;;;;;;;;4.78;76.50;99010.55;1688058;83;20205;-39
2021/03/16 05:59:23;;;;;;;;;;;;;;;4.86;75.88;99013.16;1699859;82;20311;-39
2021/03/16 06:02:08;;;;;;;;;;;;;;;4.88;75.69;99014.48;1694413;83;20475;-34
2021/03/16 06:04:56;;;;;;;;;;;;;;;4.92;75.34;99017.06;1693771;83;20773;-35
2021/03/16 06:07:51;;;;;;;;;;;;;;;4.90;75.13;99017.50;1695999;83;20220;-39
2021/03/16 06:10:37;;;;;;;;;;;;;;;4.86;75.14;99022.23;1696251;83;20627;-36
2021/03/16 06:13:24;;;;;;;;;;;;;;;4.85;75.30;99022.23;1694799;83;20298;-35
2021/03/16 06:16:15;;;;;;;;;;;;;;;4.84;75.24;99014.89;1697694;83;20300;-36
2021/03/16 06:19:02;;;;;;;;;;;;;;;4.87;75.24;99019.20;1694787;83;20206;-40
2021/03/16 06:21:58;;;;;;;;;;;;;;;4.95;75.29;99018.37;1693185;83;20306;-40
2021/03/16 06:24:50;;;;;;;;;;;;;;;5.03;75.20;99018.37;1696910;83;20202;-40
2021/03/16 06:28:03;;;;;;;;;;;;;;;5.10;75.01;99016.23;1679175;83;20419;-40
2021/03/16 06:30:49;;;;;;;;;;;;;;;5.18;75.10;99018.42;1693182;83;20200;-39
2021/03/16 06:33:36;;;;;;;;;;;;;;;5.27;74.31;99009.33;1698291;83;20555;-34
2021/03/16 06:36:27;;;;;;;;;;;;;;;5.29;74.40;99017.14;1697363;83;20275;-39
2021/03/16 06:39:21;;;;;;;;;;;;;;;5.33;74.54;99009.38;1699976;83;20196;-35
2021/03/16 06:42:10;;;;;;;;;;;;;;;5.39;74.40;99007.61;1697631;83;20198;-40
2021/03/16 06:45:02;;;;;;;;;;;;;;;5.48;74.20;99005.90;1669041;83;20558;-40
2021/03/16 06:47:54;;;;;;;;;;;;;;;5.51;73.74;99009.80;1692698;83;20496;-36
2021/03/16 06:50:42;;;;;;;;;;;;;;;5.52;73.98;99003.75;1696427;83;20126;-39
2021/03/16 06:53:47;;;;;;;;;;;;;;;5.58;73.99;99001.58;1698055;83;20283;-35
2021/03/16 06:56:35;;;;;;;;;;;;;;;5.64;73.99;99002.02;1695705;83;20754;-39
2021/03/16 06:59:23;;;;;;;;;;;;;;;5.70;73.45;98997.68;1697643;83;20462;-39
2021/03/16 07:02:12;;;;;;;;;;;;;;;5.76;72.86;98996.38;1694358;83;20206;-34
2021/03/16 07:04:59;;;;;;;;;;;;;;;5.83;72.80;98991.59;1696638;83;20176;-34
2021/03/16 07:07:46;;;;;;;;;;;;;;;5.99;72.64;98994.20;1695100;83;20194;-35
2021/03/16 07:10:31;;;;;;;;;;;;;;;6.20;71.70;98985.48;1691163;83;20172;-35
2021/03/16 07:13:17;;;;;;;;;;;;;;;6.34;70.94;98983.27;1675858;83;20225;-35
2021/03/16 07:16:03;;;;;;;;;;;;;;;6.49;70.36;98981.47;1692757;83;20212;-39
2021/03/16 07:18:51;;;;;;;;;;;;;;;6.58;69.80;98982.30;1689864;83;20448;-35
2021/03/16 07:21:39;;;;;;;;;;;;;;;6.63;69.47;98977.09;1654281;85;20166;-35
2021/03/16 07:24:32;;;;;;;;;;;;;;;6.72;69.27;98977.45;1634890;86;20197;-36
2021/03/16 07:27:18;;;;;;;;;;;;;;;6.81;69.25;98976.98;1634739;86;20580;-36
2021/03/16 07:30:04;;;;;;;;;;;;;;;6.98;69.36;98986.42;1633279;86;20201;-35
2021/03/16 07:32:50;;;;;;;;;;;;;;;7.12;69.13;98978.08;1636624;86;20182;-40
2021/03/16 07:35:37;;;;;;;;;;;;;;;7.22;69.47;98978.89;1631183;86;20609;-34
2021/03/16 07:38:25;;;;;;;;;;;;;;;7.35;69.16;98977.91;1643024;85;20186;-39
2021/03/16 07:41:11;;;;;;;;;;;;;;;7.47;68.76;98976.50;1621808;86;20311;-39
2021/03/16 07:44:07;;;;;;;;;;;;;;;7.54;68.37;98970.40;1634028;86;20169;-35
2021/03/16 07:46:59;;;;;;;;;;;;;;;7.64;68.08;98969.41;1636456;86;20740;-40
2021/03/16 07:49:45;;;;;;;;;;;;;;;7.74;68.25;98972.36;1632239;86;20287;-39
2021/03/16 07:52:45;;;;;;;;;;;;;;;7.87;67.92;98980.91;1656246;85;20241;-40
2021/03/16 07:55:33;;;;;;;;;;;;;;;7.94;66.77;98987.81;1658056;85;20205;-39
2021/03/16 07:58:25;;;;;;;;;;;;;;;7.98;66.34;98978.20;1654732;85;20179;-40
2021/03/16 08:01:14;;;;;;;;;;;;;;;8.08;66.90;98980.28;1655574;85;20670;-35
2021/03/16 08:04:09;;;;;;;;;;;;;;;8.21;67.03;98976.20;1652884;85;20244;-35
2021/03/16 08:06:58;;;;;;;;;;;;;;;8.39;67.11;98965.18;1657363;85;20303;-35
2021/03/16 08:09:48;;;;;;;;;;;;;;;8.54;66.10;98965.00;1654466;85;20470;-40
2021/03/16 08:12:34;;;;;;;;;;;;;;;8.65;65.45;98966.17;1655019;85;20193;-40
2021/03/16 08:15:20;;;;;;;;;;;;;;;8.66;63.93;98965.28;1653720;85;20212;-40
2021/03/16 08:18:08;;;;;;;;;;;;;;;8.65;64.28;98963.56;1648254;85;20327;-40
2021/03/16 08:20:56;;;;;;;;;;;;;;;8.68;64.67;98965.66;1650494;85;20236;-35
2021/03/16 08:23:42;;;;;;;;;;;;;;;8.74;64.45;98960.36;1653416;85;20603;-35
2021/03/16 08:26:29;;;;;;;;;;;;;;;8.79;63.58;98951.18;1656713;85;20720;-35
2021/03/16 08:29:40;;;;;;;;;;;;;;;8.80;63.63;98951.15;1657210;85;20311;-35
2021/03/16 08:36:56;;;;;;;;;;;;;;;8.97;63.90;98950.91;1656253;85;20205;-39
2021/03/16 08:39:47;;;;;;;;;;;;;;;9.02;63.97;98942.58;1655011;84;20227;-39
2021/03/16 08:42:51;;;;;;;;;;;;;;;9.03;63.90;98957.34;1656486;85;20172;-39
2021/03/16 08:45:37;;;;;;;;;;;;;;;9.07;63.83;98958.17;1647018;85;20210;-38
2021/03/16 08:48:27;;;;;;;;;;;;;;;9.08;63.17;98950.75;1641386;85;20224;-40
2021/03/16 08:51:17;;;;;;;;;;;;;;;9.09;63.18;98961.61;1640522;85;20222;-40
2021/03/16 08:54:03;;;;;;;;;;;;;;;9.09;63.07;98952.91;1643271;85;20558;-40
2021/03/16 08:56:49;;;;;;;;;;;;;;;9.14;63.68;98951.10;1642250;85;20165;-40
2021/03/16 08:59:37;;;;;;;;;;;;;;;9.25;63.16;98949.19;1644753;85;20482;-40
2021/03/16 09:02:33;;;;;;;;;;;;;;;9.35;63.87;98944.25;1641222;84;20625;-40
2021/03/16 09:05:40;;;;;;;;;;;;;;;9.50;63.12;98949.19;1642180;85;20179;-40
2021/03/16 09:08:34;;;;;;;;;;;;;;;9.58;62.79;98947.78;1641545;85;20443;-40
2021/03/16 09:11:32;;;;;;;;;;;;;;;9.70;62.20;98944.09;1643035;85;20467;-39
2021/03/16 09:14:18;;;;;;;;;;;;;;;9.82;61.99;98942.11;1639916;85;20184;-35
2021/03/16 09:17:05;;;;;;;;;;;;;;;9.91;61.41;98942.37;1640985;85;20221;-40
2021/03/16 09:19:53;;;;;;;;;;;;;;;9.97;61.12;98937.06;1639035;85;20187;-40
2021/03/16 09:22:39;;;;;;;;;;;;;;;10.02;60.62;98943.03;1638798;85;20173;-40
2021/03/16 09:25:27;;;;;;;;;;;;;;;10.09;61.17;98938.12;1640140;86;20505;-40
2021/03/16 09:28:14;;;;;;;;;;;;;;;10.21;60.77;98927.88;1637278;85;20305;-40
2021/03/16 09:30:59;;;;;;;;;;;;;;;10.31;60.78;98937.26;1641544;85;20515;-36
2021/03/16 09:33:45;;;;;;;;;;;;;;;10.41;61.14;98927.48;1643571;85;20188;-34
2021/03/16 09:36:31;;;;;;;;;;;;;;;10.52;60.22;98928.57;1641983;85;20193;-39
2021/03/16 09:39:19;;;;;;;;;;;;;;;10.61;60.47;98916.16;1643593;85;20526;-34
2021/03/16 09:41:55;;;;;;;;;;;;;;;10.76;59.19;98913.64;1642886;85;20176;-34
2021/03/16 09:44:29;;;;;;;;;;;;;;;10.80;58.79;98915.75;1641940;85;20217;-34
2021/03/16 09:46:56;;;;;;;;;;;;;;;10.81;58.83;98917.47;1648951;84;20167;-40
2021/03/16 09:49:35;;;;;;;;;;;;;;;10.83;58.46;98915.21;1646597;85;20197;-40
2021/03/16 09:52:05;;;;;;;;;;;;;;;10.89;57.77;98906.36;1646436;85;20177;-35
2021/03/16 09:54:40;;;;;;;;;;;;;;;10.89;57.77;98911.59;1641203;85;20201;-35
2021/03/16 09:57:10;;;;;;;;;;;;;;;10.90;58.21;98912.00;1645572;85;20579;-35
2021/03/16 09:59:39;;;;;;;;;;;;;;;10.96;58.08;98911.00;1645360;83;20767;-40
2021/03/16 10:02:07;;;;;;;;;;;;;;;11.02;58.29;98907.82;1646245;85;20608;-40
2021/03/16 10:04:48;;;;;;;;;;;;;;;11.09;57.74;98900.22;1647790;85;20809;-34
2021/03/16 10:07:30;;;;;;;;;;;;;;;11.13;58.54;98898.38;1650095;85;21026;-37
2021/03/16 10:10:15;;;;;;;;;;;;;;;11.17;57.60;98894.80;1642096;85;20563;-34
2021/03/16 10:13:07;;;;;;;;;;;;;;;11.19;57.23;98900.88;1640701;85;20172;-35
2021/03/16 10:15:40;;;;;;;;;;;;;;;11.23;57.76;98898.56;1641977;85;20469;-40
2021/03/16 10:18:11;;;;;;;;;;;;;;;11.25;56.91;98892.87;1641633;85;20182;-40
2021/03/16 10:20:41;;;;;;;;;;;;;;;11.21;56.91;98895.14;1643279;85;20855;-40
2021/03/16 10:23:18;;;;;;;;;;;;;;;11.25;57.41;98900.72;1641443;85;20465;-40
2021/03/16 10:25:57;;;;;;;;;;;;;;;11.35;57.47;98898.70;1626975;85;20273;-35
2021/03/16 10:28:37;;;;;;;;;;;;;;;11.60;56.75;98897.20;1645862;85;20177;-40
2021/03/16 10:31:14;;;;;;;;;;;;;;;11.92;55.83;98896.80;1646810;85;20185;-39
2021/03/16 10:33:42;;;;;;;;;;;;;;;12.23;54.03;98897.68;1646095;85;20536;-34
2021/03/16 10:36:11;;;;;;;;;;;;;;;12.51;52.70;98891.59;1640595;85;20751;-36
2021/03/16 10:38:39;;;;;;;;;;;;;;;12.87;52.09;98898.82;1644167;85;20185;-40
2021/03/16 10:41:06;;;;;;;;;;;;;;;13.27;49.81;98885.27;1642214;85;20209;-39
2021/03/16 10:43:37;;;;;;;;;;;;;;;13.61;49.22;98888.53;1645891;85;20218;-36
2021/03/16 10:46:05;;;;;;;;;;;;;;;13.92;48.73;98893.59;1655105;85;20211;-36
2021/03/16 10:48:34;;;;;;;;;;;;;;;14.21;49.19;98891.22;1653824;85;20431;-35
2021/03/16 10:51:02;;;;;;;;;;;;;;;14.49;47.95;98898.95;1657126;85;20179;-35
2021/03/16 10:53:30;;;;;;;;;;;;;;;14.72;47.45;98880.95;1656584;85;20169;-37
2021/03/16 10:55:59;;;;;;;;;;;;;;;14.90;46.21;98883.74;1666884;85;20209;-36
2021/03/16 10:58:27;;;;;;;;;;;;;;;15.01;44.75;98879.80;1641198;87;20177;-36
2021/03/16 11:00:56;;;;;;;;;;;;;;;15.02;44.38;98881.08;1640672;87;20452;-36
2021/03/16 11:03:25;;;;;;;;;;;;;;;15.15;45.37;98865.63;1641209;87;20810;-36
2021/03/16 11:05:53;;;;;;;;;;;;;;;15.36;44.98;98868.66;1639877;87;20532;-35
2021/03/16 11:08:27;;;;;;;;;;;;;;;15.62;44.77;98866.72;1636172;87;20201;-37
2021/03/16 11:10:55;;;;;;;;;;;;;;;15.91;44.07;98863.70;1635520;87;20245;-41
2021/03/16 11:13:24;;;;;;;;;;;;;;;16.10;43.41;98858.45;1640251;87;20210;-38
2021/03/16 11:15:52;;;;;;;;;;;;;;;16.28;43.00;98855.90;1647791;86;20192;-38
2021/03/16 11:18:20;;;;;;;;;;;;;;;16.31;42.72;98847.39;1647507;85;20407;-42
2021/03/16 11:20:51;;;;;;;;;;;;;;;16.45;42.49;98847.59;1646556;85;20220;-41
2021/03/16 11:23:18;;;;;;;;;;;;;;;16.69;41.17;98839.44;1649780;86;20177;-38
2021/03/16 11:25:52;;;;;;;;;;;;;;;16.88;39.84;98836.82;1620595;86;20221;-41
2021/03/16 11:28:30;;;;;;;;;;;;;;;16.89;39.56;98831.45;1650134;85;20323;-38
2021/03/16 11:31:28;;;;;;;;;;;;;;;16.99;39.23;98829.23;1628773;86;20241;-37
2021/03/16 11:34:25;;;;;;;;;;;;;;;17.13;40.23;98820.14;1652658;85;20172;-37
2021/03/16 11:37:18;;;;;;;;;;;;;;;17.46;39.61;98820.70;1646025;85;20199;-41
2021/03/16 11:40:13;;;;;;;;;;;;;;;17.61;40.11;98825.65;1649920;85;20476;-37
2021/03/16 11:42:59;;;;;;;;;;;;;;;17.61;40.67;98828.30;1651561;86;20493;-41
2021/03/16 11:45:46;;;;;;;;;;;;;;;17.55;40.47;98828.99;1652731;85;20181;-41
2021/03/16 11:48:32;;;;;;;;;;;;;;;17.37;40.54;98822.01;1651765;85;20294;-41
2021/03/16 11:51:19;;;;;;;;;;;;;;;17.06;40.67;98828.45;1649958;86;20200;-41
2021/03/16 11:54:04;;;;;;;;;;;;;;;16.66;40.38;98819.80;1635437;86;20453;-41
2021/03/16 11:56:51;;;;;;;;;;;;;;;16.38;42.20;98823.73;1653870;86;20359;-37
2021/03/16 11:59:39;;;;;;;;;;;;;;;16.28;43.10;98822.91;1650841;85;20217;-39
2021/03/16 12:02:25;;;;;;;;;;;;;;;16.04;43.92;98820.94;1650055;86;20712;-37
2021/03/16 12:05:11;;;;;;;;;;;;;;;15.76;45.26;98815.58;1652768;85;20213;-37
2021/03/16 12:07:57;;;;;;;;;;;;;;;15.57;45.25;98811.55;1647832;86;20188;-36
2021/03/16 12:10:44;;;;;;;;;;;;;;;15.35;45.80;98812.09;1652150;85;20220;-37
2021/03/16 12:13:31;;;;;;;;;;;;;;;15.15;46.22;98820.84;1653294;85;20174;-36
2021/03/16 12:16:17;;;;;;;;;;;;;;;14.81;46.57;98810.38;1650733;86;20211;-36
2021/03/16 12:19:03;;;;;;;;;;;;;;;14.59;47.02;98806.89;1655207;85;20186;-36
2021/03/16 12:21:48;;;;;;;;;;;;;;;14.43;47.72;98810.54;1632160;85;20190;-34
2021/03/16 12:24:34;;;;;;;;;;;;;;;14.34;47.86;98801.71;1647504;85;20181;-41
2021/03/16 12:27:20;;;;;;;;;;;;;;;14.36;47.67;98800.72;1655616;85;20585;-41
2021/03/16 12:30:06;;;;;;;;;;;;;;;14.27;47.95;98803.73;1652150;85;20651;-40
2021/03/16 12:32:52;;;;;;;;;;;;;;;14.19;48.39;98805.77;1637488;86;20187;-40
2021/03/16 12:35:38;;;;;;;;;;;;;;;13.98;48.32;98807.92;1650025;85;20813;-35
2021/03/16 12:38:24;;;;;;;;;;;;;;;13.72;48.56;98813.66;1653720;85;20185;-37
2021/03/16 12:41:10;;;;;;;;;;;;;;;13.40;48.67;98811.34;1653702;85;20586;-36
2021/03/16 12:44:11;;;;;;;;;;;;;;;13.11;49.34;98818.41;1650286;85;20668;-36
2021/03/16 12:47:16;;;;;;;;;;;;;;;12.98;50.17;98813.14;1624082;85;20182;-40
2021/03/16 12:50:05;;;;;;;;;;;;;;;12.84;50.70;98810.13;1651684;85;20641;-41
2021/03/16 12:52:51;;;;;;;;;;;;;;;12.76;52.08;98804.67;1641009;86;20614;-41
2021/03/16 12:55:36;;;;;;;;;;;;;;;12.63;52.65;98811.66;1634057;86;20208;-36
2021/03/16 12:58:22;;;;;;;;;;;;;;;12.47;52.93;98818.72;1654547;85;20726;-39
2021/03/16 13:01:09;;;;;;;;;;;;;;;12.36;53.16;98819.50;1654431;85;20209;-41
2021/03/16 13:03:55;;;;;;;;;;;;;;;12.24;53.09;98823.34;1652299;85;20588;-40
2021/03/16 13:06:41;;;;;;;;;;;;;;;12.19;53.91;98816.06;1649452;86;20192;-40
2021/03/16 13:09:26;;;;;;;;;;;;;;;12.17;54.13;98813.92;1655905;86;20229;-35
2021/03/16 13:12:13;;;;;;;;;;;;;;;12.09;54.29;98812.00;1651958;86;20456;-36
2021/03/16 13:15:06;;;;;;;;;;;;;;;11.98;54.25;98820.17;1635803;86;21751;-36
2021/03/16 13:17:51;;;;;;;;;;;;;;;11.90;54.32;98816.92;1652856;86;20168;-35
2021/03/16 13:20:37;;;;;;;;;;;;;;;11.80;54.57;98820.67;1655938;86;20653;-36
2021/03/16 13:23:22;;;;;;;;;;;;;;;11.66;55.49;98814.97;1656590;86;20566;-36
2021/03/16 13:26:08;;;;;;;;;;;;;;;11.57;55.25;98824.38;1654405;86;20185;-35
2021/03/16 13:28:54;;;;;;;;;;;;;;;11.51;56.13;98825.41;1654919;86;20172;-35
2021/03/16 13:31:40;;;;;;;;;;;;;;;11.53;56.88;98826.66;1642189;86;20177;-35
2021/03/16 13:34:26;;;;;;;;;;;;;;;11.54;57.27;98825.75;1657590;86;20495;-40
2021/03/16 13:37:13;;;;;;;;;;;;;;;11.48;57.13;98817.64;1657019;86;20193;-36
2021/03/16 13:39:58;;;;;;;;;;;;;;;11.43;56.89;98816.91;1657894;86;20176;-40
2021/03/16 13:42:44;;;;;;;;;;;;;;;11.35;56.95;98817.09;1648383;86;20279;-41
2021/03/16 13:45:30;;;;;;;;;;;;;;;11.24;57.20;98814.34;1657740;86;20291;-40
2021/03/16 13:48:15;;;;;;;;;;;;;;;11.14;57.02;98816.36;1654181;87;20185;-39
2021/03/16 13:51:01;;;;;;;;;;;;;;;10.98;57.24;98816.33;1654688;86;20180;-40
2021/03/16 13:53:47;;;;;;;;;;;;;;;10.83;57.79;98813.17;1648912;87;20574;-41
2021/03/16 13:56:32;;;;;;;;;;;;;;;10.70;57.74;98808.29;1655575;87;20271;-36
2021/03/16 13:59:19;;;;;;;;;;;;;;;10.66;57.70;98810.97;1652034;86;20260;-39
2021/03/16 14:02:04;;;;;;;;;;;;;;;10.69;57.57;98813.97;1642128;87;20195;-41
2021/03/16 14:04:51;;;;;;;;;;;;;;;10.70;57.63;98809.15;1650037;86;20486;-36
2021/03/16 14:07:37;;;;;;;;;;;;;;;10.68;57.42;98801.80;1649826;87;20206;-39
2021/03/16 14:10:22;;;;;;;;;;;;;;;10.59;57.64;98813.32;1646292;87;20296;-38
2021/03/16 14:13:08;;;;;;;;;;;;;;;10.47;57.83;98810.14;1656449;87;20188;-39
